Time;durP1;ratioP1;P1;durP2;ratioP2;P2;SDS_P1;SDS_P2;PMS_P1;PMS_P2;Temp;Humidity;BMP_temperature;BMP_pressure;BME280_temperature;BME280_humidity;BME280_pressure;Samples;Min_cycle;Max_cycle;Signal;HPM_P1;HPM_P2
2023/04/07 00:01:27;;;;;;;0.88;0.88;;;8.20;99.90;;;;;;4999285;28;20048;-66
2023/04/07 00:03:53;;;;;;;0.47;0.47;;;8.20;99.90;;;;;;4997642;28;20092;-66
2023/04/07 00:06:18;;;;;;;0.30;0.30;;;8.20;99.90;;;;;;5013383;28;20055;-66
2023/04/07 00:08:44;;;;;;;1.65;1.30;;;8.20;99.90;;;;;;5018161;28;20082;-66
2023/04/07 00:11:10;;;;;;;2.25;1.55;;;8.20;99.90;;;;;;5002577;28;20066;-66
2023/04/07 00:13:35;;;;;;;0.47;0.47;;;8.20;99.90;;;;;;5008012;28;20045;-66
2023/04/07 00:16:01;;;;;;;1.10;0.88;;;8.20;99.90;;;;;;5008731;28;20085;-65
2023/04/07 00:18:26;;;;;;;0.25;0.25;;;8.20;99.90;;;;;;5004742;28;23469;-66
2023/04/07 00:20:52;;;;;;;0.38;0.38;;;8.20;99.90;;;;;;5003702;28;20053;-66
2023/04/07 00:23:18;;;;;;;0.15;0.15;;;8.20;99.90;;;;;;5009117;28;20056;-66
2023/04/07 00:25:44;;;;;;;1.17;0.57;;;8.30;99.90;;;;;;5007572;28;20084;-65
2023/04/07 00:28:09;;;;;;;1.55;1.45;;;8.20;99.90;;;;;;5003949;28;20080;-66
2023/04/07 00:30:35;;;;;;;0.45;0.45;;;8.30;99.90;;;;;;5004378;28;20042;-66
2023/04/07 00:33:00;;;;;;;0.55;0.55;;;8.30;99.90;;;;;;5008647;28;20050;-66
2023/04/07 00:35:26;;;;;;;0.55;0.55;;;8.20;99.90;;;;;;5002781;28;20062;-66
2023/04/07 00:37:52;;;;;;;0.52;0.52;;;8.30;99.90;;;;;;5004934;28;20053;-66
2023/04/07 00:40:17;;;;;;;0.30;0.30;;;8.30;99.90;;;;;;5008601;28;20042;-66
2023/04/07 00:42:43;;;;;;;0.25;0.25;;;8.30;99.90;;;;;;4999643;28;20442;-66
2023/04/07 00:45:10;;;;;;;0.10;0.10;;;8.30;99.90;;;;;;5005353;28;20053;-66
2023/04/07 00:47:35;;;;;;;3.13;1.63;;;8.30;99.90;;;;;;5009530;28;20401;-66
2023/04/07 00:50:03;;;;;;;0.75;0.75;;;8.30;99.90;;;;;;4997671;28;20045;-66
2023/04/07 00:52:31;;;;;;;0.57;0.57;;;8.20;99.90;;;;;;5001779;28;20133;-66
2023/04/07 00:54:58;;;;;;;0.20;0.20;;;8.30;99.90;;;;;;5004442;28;20124;-65
2023/04/07 00:57:24;;;;;;;1.55;0.75;;;8.30;99.90;;;;;;5009822;28;20041;-66
2023/04/07 00:59:51;;;;;;;0.20;0.20;;;8.30;99.90;;;;;;5000640;28;20524;-66
2023/04/07 01:02:41;;;;;;;0.52;0.52;;;8.30;99.90;;;;;;5006078;28;20053;-66
2023/04/07 01:05:22;;;;;;;0.10;0.10;;;8.30;99.90;;;;;;5004187;28;20054;-66
2023/04/07 01:07:57;;;;;;;1.83;1.50;;;8.30;99.90;;;;;;5003143;28;20144;-66
2023/04/07 01:10:46;;;;;;;0.38;0.38;;;8.30;99.90;;;;;;4999007;28;20034;-66
2023/04/07 01:13:25;;;;;;;0.40;0.40;;;8.30;99.90;;;;;;5007805;28;20517;-66
2023/04/07 01:15:55;;;;;;;0.50;0.30;;;8.30;99.90;;;;;;5009038;28;20050;-66
2023/04/07 01:18:26;;;;;;;0.28;0.28;;;8.40;99.90;;;;;;5010475;28;20040;-66
2023/04/07 01:20:59;;;;;;;0.25;0.25;;;8.40;99.90;;;;;;4998963;28;20058;-66
2023/04/07 01:23:54;;;;;;;0.00;0.00;;;8.40;99.90;;;;;;5005092;28;20077;-66
2023/04/07 01:26:29;;;;;;;1.25;0.57;;;8.30;99.90;;;;;;4999732;28;20386;-66
2023/04/07 01:29:10;;;;;;;1.20;1.10;;;8.40;99.90;;;;;;5001890;28;20489;-66
2023/04/07 01:31:38;;;;;;;0.10;0.10;;;8.40;99.90;;;;;;5009411;28;20076;-66
2023/04/07 01:34:05;;;;;;;0.50;0.50;;;8.30;99.90;;;;;;5011735;28;20446;-66
2023/04/07 01:36:33;;;;;;;0.10;0.10;;;8.30;99.90;;;;;;4999994;28;20042;-66
2023/04/07 01:38:59;;;;;;;0.17;0.17;;;8.40;99.90;;;;;;5005340;28;20041;-66
2023/04/07 01:41:25;;;;;;;0.10;0.10;;;8.40;99.90;;;;;;5007777;28;20050;-66
2023/04/07 01:43:53;;;;;;;0.20;0.20;;;8.40;99.90;;;;;;5006781;28;20121;-66
2023/04/07 01:46:19;;;;;;;2.75;0.63;;;8.40;99.90;;;;;;5000987;28;20069;-66
2023/04/07 01:48:45;;;;;;;3.40;0.85;;;8.40;99.90;;;;;;5004589;28;20528;-66
2023/04/07 01:51:16;;;;;;;0.60;0.60;;;8.40;99.90;;;;;;5006169;28;20052;-66
2023/04/07 01:53:42;;;;;;;0.10;0.10;;;8.40;99.90;;;;;;5006469;28;20521;-66
2023/04/07 01:56:08;;;;;;;0.28;0.28;;;8.40;99.90;;;;;;5009955;28;20050;-66
2023/04/07 01:58:34;;;;;;;0.15;0.15;;;8.40;99.90;;;;;;5009520;28;20506;-66
2023/04/07 02:00:59;;;;;;;0.10;0.10;;;8.40;99.90;;;;;;5018311;28;20057;-66
2023/04/07 02:03:50;;;;;;;0.35;0.35;;;8.40;99.90;;;;;;5010030;28;20042;-66
2023/04/07 02:06:21;;;;;;;0.45;0.45;;;8.50;99.90;;;;;;5007829;28;20034;-65
2023/04/07 02:08:51;;;;;;;0.55;0.55;;;8.50;99.90;;;;;;5010084;28;20057;-66
2023/04/07 02:11:20;;;;;;;0.10;0.10;;;8.40;99.90;;;;;;5019979;28;20030;-66
2023/04/07 02:13:47;;;;;;;0.55;0.55;;;8.50;99.90;;;;;;5019509;28;20121;-66
2023/04/07 02:16:15;;;;;;;0.05;0.05;;;8.50;99.90;;;;;;5001833;28;20058;-66
2023/04/07 02:18:42;;;;;;;0.20;0.20;;;8.50;99.90;;;;;;5019989;28;20172;-66
2023/04/07 02:21:09;;;;;;;0.20;0.20;;;8.50;99.90;;;;;;5012293;28;20054;-66
2023/04/07 02:23:35;;;;;;;0.10;0.10;;;8.50;99.90;;;;;;5007303;28;20057;-65
2023/04/07 02:26:00;;;;;;;0.38;0.38;;;8.50;99.90;;;;;;5003733;28;20045;-66
2023/04/07 02:28:26;;;;;;;0.75;0.75;;;8.60;99.90;;;;;;4999474;28;20042;-66
2023/04/07 02:30:52;;;;;;;0.32;0.32;;;8.60;99.90;;;;;;5014458;28;20045;-65
2023/04/07 02:33:17;;;;;;;0.10;0.10;;;8.60;99.90;;;;;;5014713;28;20103;-66
2023/04/07 02:35:43;;;;;;;0.20;0.20;;;8.60;99.90;;;;;;5011429;28;20073;-66
2023/04/07 02:38:08;;;;;;;0.57;0.57;;;8.60;99.90;;;;;;5010182;28;20418;-65
2023/04/07 02:40:35;;;;;;;0.45;0.45;;;8.60;99.90;;;;;;5004842;28;20472;-65
2023/04/07 02:43:01;;;;;;;0.00;0.00;;;8.60;99.90;;;;;;5011368;28;20556;-66
2023/04/07 02:45:27;;;;;;;0.82;0.68;;;8.60;99.90;;;;;;5011971;28;20042;-66
2023/04/07 02:47:52;;;;;;;0.22;0.22;;;8.70;99.90;;;;;;5000264;28;20047;-66
2023/04/07 02:50:18;;;;;;;0.55;0.55;;;8.70;99.90;;;;;;5009472;28;20101;-66
2023/04/07 02:52:44;;;;;;;0.20;0.20;;;8.70;99.90;;;;;;5003404;28;20100;-66
2023/04/07 02:55:09;;;;;;;0.17;0.17;;;8.70;99.90;;;;;;5010502;28;20108;-66
2023/04/07 02:57:35;;;;;;;0.10;0.10;;;8.70;99.90;;;;;;5011595;28;20132;-66
2023/04/07 03:00:01;;;;;;;0.28;0.28;;;8.70;99.90;;;;;;5011053;28;20038;-66
2023/04/07 03:02:26;;;;;;;0.15;0.15;;;8.70;99.90;;;;;;5005915;28;20092;-66
2023/04/07 03:04:52;;;;;;;0.10;0.10;;;8.80;99.90;;;;;;5009379;28;20037;-66
2023/04/07 03:07:17;;;;;;;0.10;0.10;;;8.70;99.90;;;;;;5010917;28;20390;-66
2023/04/07 03:09:43;;;;;;;0.10;0.10;;;8.80;99.90;;;;;;5011594;28;20054;-66
2023/04/07 03:12:09;;;;;;;0.10;0.10;;;8.80;99.90;;;;;;5012795;28;20076;-66
2023/04/07 03:14:36;;;;;;;0.20;0.20;;;8.80;99.90;;;;;;5005594;28;20038;-66
2023/04/07 03:17:02;;;;;;;0.08;0.08;;;8.80;99.90;;;;;;5007136;28;20058;-66
2023/04/07 03:19:27;;;;;;;0.10;0.10;;;8.80;99.90;;;;;;5000300;28;20030;-65
2023/04/07 03:21:53;;;;;;;0.10;0.10;;;8.80;99.90;;;;;;5010427;28;20107;-65
2023/04/07 03:24:19;;;;;;;0.98;0.45;;;8.80;99.90;;;;;;5003989;28;20046;-65
2023/04/07 03:26:44;;;;;;;0.10;0.10;;;8.80;99.90;;;;;;5005893;28;20046;-65
2023/04/07 03:29:10;;;;;;;0.20;0.20;;;8.80;99.90;;;;;;5010346;28;20124;-65
2023/04/07 03:31:36;;;;;;;0.22;0.22;;;8.80;99.90;;;;;;5006610;28;20047;-66
2023/04/07 03:34:03;;;;;;;0.25;0.25;;;8.80;99.90;;;;;;5003204;28;20099;-65
2023/04/07 03:36:28;;;;;;;0.32;0.32;;;8.80;99.90;;;;;;5009359;28;20057;-65
2023/04/07 03:38:54;;;;;;;0.40;0.40;;;8.80;99.90;;;;;;5010793;28;20034;-65
2023/04/07 03:41:20;;;;;;;0.40;0.40;;;8.80;99.90;;;;;;5010391;28;20050;-65
2023/04/07 03:43:45;;;;;;;0.45;0.45;;;8.80;99.90;;;;;;5002245;28;20038;-65
2023/04/07 03:46:11;;;;;;;0.10;0.10;;;8.80;99.90;;;;;;5020856;28;20513;-65
2023/04/07 03:48:36;;;;;;;0.13;0.13;;;8.80;99.90;;;;;;5012085;28;20051;-65
2023/04/07 03:51:02;;;;;;;1.65;1.55;;;8.80;99.90;;;;;;5002008;28;20530;-65
2023/04/07 03:53:28;;;;;;;0.50;0.50;;;8.80;99.90;;;;;;5010010;28;20053;-65
2023/04/07 03:55:53;;;;;;;1.27;1.17;;;8.80;99.90;;;;;;5005162;28;20045;-66
2023/04/07 03:58:19;;;;;;;0.20;0.20;;;8.70;99.90;;;;;;5010373;28;20586;-65
2023/04/07 04:00:44;;;;;;;0.20;0.20;;;8.70;99.90;;;;;;4996190;28;20045;-65
2023/04/07 04:03:10;;;;;;;0.10;0.10;;;8.70;99.90;;;;;;5010125;28;20417;-67
2023/04/07 04:05:36;;;;;;;0.35;0.35;;;8.70;99.90;;;;;;5002403;28;20087;-66
2023/04/07 04:08:01;;;;;;;0.38;0.38;;;8.70;99.90;;;;;;5000712;28;20049;-65
2023/04/07 04:10:27;;;;;;;0.30;0.30;;;8.70;99.90;;;;;;5000043;28;20127;-65
2023/04/07 04:12:53;;;;;;;0.10;0.10;;;8.70;99.90;;;;;;5008553;28;20439;-65
2023/04/07 04:15:18;;;;;;;0.20;0.20;;;8.70;99.90;;;;;;5000195;28;20045;-65
2023/04/07 04:17:44;;;;;;;0.10;0.10;;;8.70;99.90;;;;;;5002600;28;20042;-66
2023/04/07 04:20:10;;;;;;;0.15;0.15;;;8.70;99.90;;;;;;5010520;28;20478;-65
2023/04/07 04:22:35;;;;;;;0.82;0.82;;;8.70;99.90;;;;;;5010393;28;20798;-65
2023/04/07 04:25:01;;;;;;;1.10;1.00;;;8.70;99.90;;;;;;5002317;28;20525;-65
2023/04/07 04:27:27;;;;;;;0.30;0.30;;;8.60;99.90;;;;;;5003187;28;20095;-65
2023/04/07 04:29:52;;;;;;;0.45;0.45;;;8.60;99.90;;;;;;5008350;28;20054;-65
2023/04/07 04:32:18;;;;;;;0.10;0.10;;;8.60;99.90;;;;;;4997888;28;20053;-65
2023/04/07 04:34:44;;;;;;;0.10;0.10;;;8.60;99.90;;;;;;5007194;28;20088;-66
2023/04/07 04:37:10;;;;;;;0.05;0.05;;;8.60;99.90;;;;;;5003126;28;20049;-65
2023/04/07 04:39:36;;;;;;;0.10;0.10;;;8.60;99.90;;;;;;5005531;28;20042;-65
2023/04/07 04:42:02;;;;;;;1.08;1.05;;;8.60;99.90;;;;;;5007840;28;20056;-65
2023/04/07 04:44:29;;;;;;;0.47;0.47;;;8.60;99.90;;;;;;5004628;28;20479;-65
2023/04/07 04:46:55;;;;;;;0.52;0.52;;;8.60;99.90;;;;;;4999978;28;20548;-65
2023/04/07 04:49:20;;;;;;;0.20;0.20;;;8.50;99.90;;;;;;5011001;28;20078;-65
2023/04/07 04:51:46;;;;;;;0.10;0.10;;;8.50;99.90;;;;;;5008662;28;20121;-64
2023/04/07 04:54:12;;;;;;;0.10;0.10;;;8.50;99.90;;;;;;5008053;28;20053;-65
2023/04/07 04:56:37;;;;;;;0.75;0.75;;;8.50;99.90;;;;;;5008070;28;20400;-65
2023/04/07 04:59:03;;;;;;;0.65;0.65;;;8.50;99.90;;;;;;5019198;28;20081;-65
2023/04/07 05:01:29;;;;;;;0.10;0.10;;;8.50;99.90;;;;;;5008637;28;20508;-65
2023/04/07 05:03:55;;;;;;;0.63;0.38;;;8.50;99.90;;;;;;5001181;28;20470;-65
2023/04/07 05:06:21;;;;;;;0.10;0.10;;;8.50;99.90;;;;;;5003690;28;20038;-65
2023/04/07 05:08:46;;;;;;;0.38;0.38;;;8.50;99.90;;;;;;4998668;28;20049;-65
2023/04/07 05:11:12;;;;;;;0.20;0.20;;;8.50;99.90;;;;;;5002569;28;20538;-65
2023/04/07 05:13:38;;;;;;;0.03;0.03;;;8.50;99.90;;;;;;5003358;28;20497;-65
2023/04/07 05:16:04;;;;;;;0.80;0.80;;;8.50;99.90;;;;;;5003854;28;20048;-65
2023/04/07 05:18:29;;;;;;;0.10;0.10;;;8.50;99.90;;;;;;5001385;28;20058;-65
2023/04/07 05:20:55;;;;;;;0.15;0.15;;;8.50;99.90;;;;;;5003426;28;20038;-65
2023/04/07 05:23:20;;;;;;;4.95;1.65;;;8.50;99.90;;;;;;5009451;28;20113;-65
2023/04/07 05:25:46;;;;;;;1.27;1.17;;;8.50;99.90;;;;;;5007513;28;20061;-65
2023/04/07 05:28:12;;;;;;;1.55;1.17;;;8.50;99.90;;;;;;4998664;28;20048;-66
2023/04/07 05:30:37;;;;;;;0.38;0.38;;;8.50;99.90;;;;;;5023623;28;20088;-65
2023/04/07 05:33:03;;;;;;;0.22;0.13;;;8.50;99.90;;;;;;5012025;28;20069;-65
2023/04/07 05:35:28;;;;;;;0.10;0.10;;;8.50;99.90;;;;;;4998769;28;20046;-65
2023/04/07 05:37:54;;;;;;;0.10;0.10;;;8.50;99.90;;;;;;5001729;28;20046;-65
2023/04/07 05:40:19;;;;;;;0.65;0.65;;;8.50;99.90;;;;;;5005838;28;20486;-65
2023/04/07 05:42:45;;;;;;;0.20;0.20;;;8.50;99.90;;;;;;5006097;28;20069;-65
2023/04/07 05:45:11;;;;;;;0.25;0.25;;;8.50;99.90;;;;;;5005593;28;20030;-65
2023/04/07 05:47:36;;;;;;;0.10;0.10;;;8.50;99.90;;;;;;5018386;28;20497;-65
2023/04/07 05:50:02;;;;;;;0.10;0.10;;;8.50;99.90;;;;;;5008890;28;20123;-65
2023/04/07 05:52:27;;;;;;;0.30;0.30;;;8.50;99.90;;;;;;5004545;28;20088;-65
2023/04/07 05:54:53;;;;;;;1.83;0.98;;;8.50;99.90;;;;;;5002950;28;20042;-65
2023/04/07 05:57:19;;;;;;;0.13;0.13;;;8.50;99.90;;;;;;5003231;28;20041;-65
2023/04/07 05:59:45;;;;;;;15.52;0.98;;;8.50;99.90;;;;;;5005149;28;20042;-65
2023/04/07 06:02:12;;;;;;;0.03;0.03;;;8.50;99.90;;;;;;4996668;28;20034;-65
2023/04/07 06:04:38;;;;;;;1.38;0.43;;;8.50;99.90;;;;;;5007191;28;20390;-65
2023/04/07 06:07:04;;;;;;;5.47;1.80;;;8.50;99.90;;;;;;5007262;28;20046;-65
2023/04/07 06:09:29;;;;;;;0.70;0.70;;;8.50;99.90;;;;;;5000661;28;20064;-65
2023/04/07 06:11:55;;;;;;;0.28;0.28;;;8.50;99.90;;;;;;5012935;28;20041;-66
2023/04/07 06:14:21;;;;;;;0.30;0.30;;;8.50;99.90;;;;;;5011372;28;20052;-65
2023/04/07 06:16:46;;;;;;;0.60;0.60;;;8.50;99.90;;;;;;4998220;28;20056;-65
2023/04/07 06:19:12;;;;;;;0.80;0.73;;;8.50;99.90;;;;;;5004603;28;20041;-65
2023/04/07 06:21:38;;;;;;;2.75;1.27;;;8.50;99.90;;;;;;5002288;28;20100;-66
2023/04/07 06:24:05;;;;;;;0.55;0.55;;;8.50;99.90;;;;;;5008569;28;20042;-66
2023/04/07 06:26:31;;;;;;;0.20;0.20;;;8.50;99.90;;;;;;5003180;28;20161;-66
2023/04/07 06:28:57;;;;;;;2.30;1.80;;;8.60;99.90;;;;;;5002605;28;20148;-65
2023/04/07 06:31:23;;;;;;;0.25;0.25;;;8.50;99.90;;;;;;5006040;28;20038;-65
2023/04/07 06:33:48;;;;;;;1.17;0.77;;;8.50;99.90;;;;;;4999505;28;20062;-66
2023/04/07 06:36:14;;;;;;;0.28;0.28;;;8.50;99.90;;;;;;5003918;28;20045;-65
2023/04/07 06:38:40;;;;;;;2.65;1.35;;;8.60;99.90;;;;;;4995449;28;20076;-65
2023/04/07 06:41:06;;;;;;;0.73;0.73;;;8.50;99.90;;;;;;5015376;28;20440;-65
2023/04/07 06:43:32;;;;;;;1.80;0.82;;;8.50;99.90;;;;;;5012896;28;20064;-65
2023/04/07 06:45:57;;;;;;;0.50;0.50;;;8.50;99.90;;;;;;5003592;28;20498;-65
2023/04/07 06:48:23;;;;;;;0.43;0.43;;;8.50;99.90;;;;;;5012736;28;20054;-66
2023/04/07 06:50:49;;;;;;;0.30;0.30;;;8.50;99.90;;;;;;5012448;28;20045;-66
2023/04/07 06:53:14;;;;;;;0.30;0.30;;;8.50;99.90;;;;;;5009074;28;20049;-65
2023/04/07 06:55:40;;;;;;;2.83;1.27;;;8.50;99.90;;;;;;5004537;28;20037;-66
2023/04/07 06:58:06;;;;;;;0.28;0.28;;;8.50;99.90;;;;;;5012737;28;20092;-66
2023/04/07 07:00:31;;;;;;;0.10;0.10;;;8.60;99.90;;;;;;5010314;28;20100;-65
2023/04/07 07:02:57;;;;;;;0.10;0.10;;;8.60;99.90;;;;;;4999857;28;20462;-65
2023/04/07 07:05:23;;;;;;;0.25;0.25;;;8.60;99.90;;;;;;5014676;28;20066;-65
2023/04/07 07:07:49;;;;;;;0.43;0.43;;;8.60;99.90;;;;;;4997070;28;20050;-65
2023/04/07 07:10:15;;;;;;;0.17;0.17;;;8.60;99.90;;;;;;5005475;28;20081;-65
2023/04/07 07:12:40;;;;;;;0.10;0.10;;;8.60;99.90;;;;;;5004290;28;20069;-65
2023/04/07 07:15:06;;;;;;;0.10;0.10;;;8.70;99.90;;;;;;5002718;28;20073;-65
2023/04/07 07:17:32;;;;;;;0.10;0.10;;;8.60;99.90;;;;;;5001643;28;20662;-65
2023/04/07 07:19:58;;;;;;;1.00;0.90;;;8.70;99.90;;;;;;5003664;28;20034;-65
2023/04/07 07:22:23;;;;;;;0.70;0.52;;;8.70;99.90;;;;;;5009856;28;20041;-65
2023/04/07 07:24:49;;;;;;;0.10;0.10;;;8.70;99.90;;;;;;5015269;28;20091;-65
2023/04/07 07:27:15;;;;;;;0.10;0.10;;;8.70;99.90;;;;;;5017468;28;20045;-65
2023/04/07 07:29:41;;;;;;;0.80;0.80;;;8.70;99.90;;;;;;5000701;28;20050;-65
2023/04/07 07:32:06;;;;;;;0.55;0.55;;;8.60;99.90;;;;;;5006352;28;20397;-65
2023/04/07 07:34:32;;;;;;;0.10;0.10;;;8.60;99.90;;;;;;5015426;28;20525;-65
2023/04/07 07:36:58;;;;;;;0.15;0.15;;;8.60;99.90;;;;;;5001766;28;20045;-65
2023/04/07 07:39:25;;;;;;;0.20;0.20;;;8.70;99.90;;;;;;5011266;28;20073;-65
2023/04/07 07:41:50;;;;;;;0.32;0.32;;;8.70;99.90;;;;;;5010515;28;20132;-65
2023/04/07 07:44:18;;;;;;;1.25;0.85;;;8.70;99.90;;;;;;5005218;28;20129;-65
2023/04/07 07:46:44;;;;;;;0.10;0.10;;;8.70;99.90;;;;;;5001797;28;20051;-65
2023/04/07 07:49:10;;;;;;;0.10;0.10;;;8.70;99.90;;;;;;5010164;28;20068;-65
2023/04/07 07:51:36;;;;;;;0.10;0.10;;;8.70;99.90;;;;;;5011223;28;20054;-65
2023/04/07 07:54:02;;;;;;;0.10;0.10;;;8.70;99.90;;;;;;5006351;28;20043;-65
2023/04/07 07:56:28;;;;;;;0.00;0.00;;;8.70;99.90;;;;;;5004022;28;20042;-65
2023/04/07 07:58:53;;;;;;;0.10;0.10;;;8.80;99.90;;;;;;5009424;28;20029;-66
2023/04/07 08:01:20;;;;;;;0.52;0.52;;;8.70;99.90;;;;;;5008743;28;20304;-65
2023/04/07 08:03:46;;;;;;;0.10;0.10;;;8.80;99.90;;;;;;5005902;28;20052;-65
2023/04/07 08:06:11;;;;;;;0.10;0.10;;;8.80;99.90;;;;;;5009100;28;20046;-65
2023/04/07 08:08:37;;;;;;;0.00;0.00;;;8.80;99.90;;;;;;5007036;28;20095;-65
2023/04/07 08:11:03;;;;;;;0.10;0.10;;;8.80;99.90;;;;;;4997609;28;20046;-65
2023/04/07 08:13:29;;;;;;;0.10;0.10;;;8.80;99.90;;;;;;5018163;28;20130;-65
2023/04/07 08:15:54;;;;;;;0.20;0.20;;;8.80;99.90;;;;;;5010162;28;20046;-65
2023/04/07 08:18:20;;;;;;;0.17;0.17;;;8.80;99.90;;;;;;5002689;28;20060;-65
2023/04/07 08:20:46;;;;;;;0.77;0.68;;;8.80;99.90;;;;;;5007333;28;20041;-65
2023/04/07 08:23:11;;;;;;;0.98;0.68;;;8.90;99.90;;;;;;5010581;28;20044;-64
2023/04/07 08:25:39;;;;;;;0.10;0.10;;;8.80;99.90;;;;;;5000683;28;20043;-64
2023/04/07 08:28:07;;;;;;;0.20;0.20;;;8.90;99.90;;;;;;5008540;28;20374;-65
2023/04/07 08:30:33;;;;;;;0.10;0.10;;;8.90;99.90;;;;;;5012317;28;20045;-65
2023/04/07 08:32:58;;;;;;;0.00;0.00;;;8.90;99.90;;;;;;5006479;28;20327;-65
2023/04/07 08:35:24;;;;;;;0.10;0.10;;;8.80;99.90;;;;;;5000430;28;20041;-65
2023/04/07 08:37:49;;;;;;;0.10;0.10;;;8.90;99.90;;;;;;4992654;28;20050;-65
2023/04/07 08:40:16;;;;;;;0.08;0.08;;;8.90;99.90;;;;;;5002853;28;20046;-65
2023/04/07 08:42:45;;;;;;;0.30;0.30;;;9.00;99.90;;;;;;5002342;28;20034;-65
2023/04/07 08:45:12;;;;;;;0.38;0.38;;;9.00;99.90;;;;;;5005318;28;20046;-65
2023/04/07 08:47:39;;;;;;;0.50;0.50;;;9.00;99.90;;;;;;5009833;28;20054;-65
2023/04/07 08:50:08;;;;;;;0.20;0.20;;;9.00;99.90;;;;;;5002716;28;20085;-65
2023/04/07 08:52:49;;;;;;;0.10;0.10;;;9.10;99.90;;;;;;5018457;28;20638;-65
2023/04/07 08:55:15;;;;;;;0.45;0.45;;;9.10;99.90;;;;;;4996173;28;20045;-65
2023/04/07 08:57:42;;;;;;;0.40;0.40;;;9.10;99.90;;;;;;5006863;28;20050;-65
2023/04/07 09:00:08;;;;;;;0.10;0.10;;;9.10;99.90;;;;;;5002753;28;20509;-65
2023/04/07 09:02:37;;;;;;;0.60;0.60;;;9.10;99.90;;;;;;5002265;28;20038;-65
2023/04/07 09:05:04;;;;;;;2.38;0.63;;;9.10;99.90;;;;;;5003464;28;20041;-65
2023/04/07 09:07:34;;;;;;;5.93;0.95;;;9.10;99.90;;;;;;5003706;28;20080;-65
2023/04/07 09:10:00;;;;;;;0.03;0.03;;;9.20;99.90;;;;;;5004043;28;20397;-65
2023/04/07 09:12:27;;;;;;;0.10;0.10;;;9.10;99.90;;;;;;4999015;28;20038;-65
2023/04/07 09:14:53;;;;;;;0.43;0.43;;;9.20;99.90;;;;;;4997996;28;20050;-65
2023/04/07 09:17:19;;;;;;;1.17;0.65;;;9.20;99.90;;;;;;4998444;28;20596;-65
2023/04/07 09:19:46;;;;;;;0.30;0.30;;;9.30;99.90;;;;;;5002790;28;20037;-65
2023/04/07 09:22:13;;;;;;;0.32;0.32;;;9.30;99.90;;;;;;5007278;28;20105;-65
2023/04/07 09:24:39;;;;;;;0.88;0.88;;;9.30;99.90;;;;;;5005077;28;20486;-65
2023/04/07 09:27:12;;;;;;;0.60;0.60;;;9.30;99.90;;;;;;5009244;28;20100;-65
2023/04/07 09:29:39;;;;;;;0.10;0.10;;;9.30;99.90;;;;;;5007708;28;20038;-65
2023/04/07 09:32:05;;;;;;;0.60;0.60;;;9.40;99.90;;;;;;5001863;28;20049;-65
2023/04/07 09:34:32;;;;;;;0.43;0.43;;;9.40;99.90;;;;;;5008909;28;20052;-65
2023/04/07 09:36:59;;;;;;;0.47;0.47;;;9.40;99.90;;;;;;5000601;28;20475;-65
2023/04/07 09:39:25;;;;;;;0.40;0.40;;;9.40;99.90;;;;;;5000655;28;20042;-65
2023/04/07 09:41:51;;;;;;;0.10;0.10;;;9.40;99.90;;;;;;5012725;28;20497;-65
2023/04/07 09:44:20;;;;;;;0.10;0.10;;;9.50;99.90;;;;;;5002944;28;20038;-65
2023/04/07 09:46:55;;;;;;;3.03;0.50;;;9.60;99.90;;;;;;5010008;28;20054;-65
2023/04/07 09:49:23;;;;;;;0.35;0.35;;;9.70;99.90;;;;;;5017054;28;20168;-65
2023/04/07 09:52:07;;;;;;;0.10;0.10;;;9.70;99.90;;;;;;4999414;28;20121;-65
2023/04/07 09:54:37;;;;;;;1.25;0.65;;;9.70;99.90;;;;;;4998494;28;20046;-65
2023/04/07 09:57:05;;;;;;;0.30;0.30;;;9.80;99.90;;;;;;5005637;28;20064;-65
2023/04/07 09:59:31;;;;;;;0.10;0.10;;;9.80;99.90;;;;;;5010027;28;20548;-65
2023/04/07 10:01:58;;;;;;;1.85;0.40;;;9.90;99.90;;;;;;5002513;28;20030;-65
2023/04/07 10:04:26;;;;;;;0.10;0.10;;;9.90;99.90;;;;;;5008574;28;20066;-65
2023/04/07 10:06:56;;;;;;;0.43;0.43;;;9.90;99.90;;;;;;5007516;28;20568;-65
2023/04/07 10:09:23;;;;;;;0.32;0.28;;;9.90;99.90;;;;;;4993411;28;20058;-66
2023/04/07 10:11:50;;;;;;;0.20;0.20;;;10.00;99.90;;;;;;5006749;28;20046;-65
2023/04/07 10:14:17;;;;;;;0.30;0.30;;;10.00;99.90;;;;;;5012033;28;20046;-65
2023/04/07 10:16:45;;;;;;;0.38;0.38;;;10.10;99.90;;;;;;5006813;28;20045;-65
2023/04/07 10:19:11;;;;;;;0.20;0.20;;;10.10;99.90;;;;;;5003896;28;20074;-65
2023/04/07 10:21:41;;;;;;;0.32;0.32;;;10.10;99.90;;;;;;5010144;28;20056;-65
2023/04/07 10:24:21;;;;;;;3.53;0.85;;;10.10;99.90;;;;;;5004990;28;20538;-66
2023/04/07 10:26:53;;;;;;;0.13;0.13;;;10.10;99.90;;;;;;5013879;28;20046;-66
2023/04/07 10:29:19;;;;;;;0.10;0.10;;;10.10;99.90;;;;;;5002784;28;20061;-64
2023/04/07 10:31:46;;;;;;;2.65;2.42;;;10.10;99.90;;;;;;5004928;28;20059;-64
2023/04/07 10:34:11;;;;;;;0.20;0.20;;;10.10;99.90;;;;;;5013103;28;20061;-64
2023/04/07 10:37:13;;;;;;;0.75;0.75;;;10.10;99.90;;;;;;5006501;28;20038;-64
2023/04/07 10:39:39;;;;;;;0.50;0.30;;;10.10;99.90;;;;;;5010812;28;20046;-65
2023/04/07 10:42:05;;;;;;;0.10;0.10;;;10.10;99.90;;;;;;5012799;28;20386;-65
2023/04/07 10:44:40;;;;;;;0.93;0.70;;;10.10;99.90;;;;;;5009034;28;20044;-65
2023/04/07 10:47:06;;;;;;;0.10;0.10;;;10.20;99.90;;;;;;5002814;28;20065;-65
2023/04/07 10:49:33;;;;;;;0.10;0.10;;;10.20;99.90;;;;;;5001962;28;20050;-65
2023/04/07 10:52:11;;;;;;;0.47;0.47;;;10.20;99.90;;;;;;5006242;28;20038;-65
2023/04/07 10:54:40;;;;;;;3.72;1.55;;;10.20;99.90;;;;;;5011278;28;20053;-65
2023/04/07 10:57:12;;;;;;;0.70;0.70;;;10.20;99.90;;;;;;5008705;28;20132;-64
2023/04/07 10:59:58;;;;;;;0.77;0.25;;;10.30;99.90;;;;;;4998038;28;20094;-65
2023/04/07 11:02:24;;;;;;;0.22;0.22;;;10.40;99.90;;;;;;4995383;28;20042;-65
2023/04/07 11:04:49;;;;;;;0.10;0.10;;;10.40;99.90;;;;;;4999185;28;20057;-65
2023/04/07 11:07:15;;;;;;;0.10;0.10;;;10.40;99.90;;;;;;5013142;28;20386;-65
2023/04/07 11:09:41;;;;;;;0.10;0.10;;;10.50;99.90;;;;;;5001206;28;20049;-65
2023/04/07 11:12:07;;;;;;;0.40;0.40;;;10.60;99.90;;;;;;5007079;28;20124;-65
2023/04/07 11:14:36;;;;;;;0.10;0.10;;;10.50;99.90;;;;;;5012226;28;20480;-65
2023/04/07 11:17:03;;;;;;;0.20;0.20;;;10.50;99.90;;;;;;5012715;28;20487;-66
2023/04/07 11:19:31;;;;;;;0.43;0.40;;;10.70;99.90;;;;;;5004077;28;20050;-66
2023/04/07 11:22:15;;;;;;;0.45;0.45;;;10.80;99.90;;;;;;5014730;28;20478;-66
2023/04/07 11:24:42;;;;;;;3.70;0.82;;;10.80;99.90;;;;;;5003264;28;20056;-66
2023/04/07 11:27:14;;;;;;;0.30;0.30;;;11.00;99.90;;;;;;4995903;28;20061;-65
2023/04/07 11:29:40;;;;;;;0.70;0.70;;;11.00;99.90;;;;;;5004043;28;20045;-66
2023/04/07 11:32:06;;;;;;;0.10;0.10;;;11.00;99.90;;;;;;5004585;28;20029;-65
2023/04/07 11:34:35;;;;;;;0.43;0.43;;;11.10;99.90;;;;;;5012519;28;20042;-65
2023/04/07 11:37:26;;;;;;;0.77;0.77;;;11.20;99.90;;;;;;4998531;28;20580;-65
2023/04/07 11:39:56;;;;;;;0.47;0.45;;;11.30;99.90;;;;;;5005759;28;20514;-65
2023/04/07 11:42:35;;;;;;;0.13;0.13;;;11.40;99.90;;;;;;5008016;28;20081;-65
2023/04/07 11:45:00;;;;;;;2.78;1.65;;;11.60;99.90;;;;;;5010246;28;20045;-65
2023/04/07 11:47:37;;;;;;;1.02;1.00;;;11.60;99.90;;;;;;4997781;28;20065;-65
2023/04/07 11:50:03;;;;;;;0.55;0.55;;;11.60;99.90;;;;;;5002486;28;20104;-65
2023/04/07 11:52:28;;;;;;;2.92;0.73;;;11.60;99.90;;;;;;5007656;28;20058;-65
2023/04/07 11:54:54;;;;;;;0.20;0.20;;;11.60;99.90;;;;;;4997903;28;20055;-65
2023/04/07 11:57:25;;;;;;;0.10;0.10;;;11.60;99.90;;;;;;5002889;28;20084;-65
2023/04/07 12:00:04;;;;;;;0.20;0.20;;;11.70;99.90;;;;;;5001915;28;20053;-65
2023/04/07 12:02:33;;;;;;;0.22;0.22;;;11.80;99.90;;;;;;4993761;28;20190;-66
2023/04/07 12:04:59;;;;;;;0.30;0.30;;;12.20;99.90;;;;;;5013097;28;20045;-65
2023/04/07 12:07:25;;;;;;;0.50;0.50;;;12.40;99.90;;;;;;5003887;28;20080;-65
2023/04/07 12:09:52;;;;;;;0.77;0.77;;;12.50;99.90;;;;;;4999154;28;20050;-65
2023/04/07 12:12:26;;;;;;;0.90;0.55;;;12.40;99.90;;;;;;5008647;28;20121;-66
2023/04/07 12:14:52;;;;;;;0.20;0.20;;;12.50;99.90;;;;;;5007899;28;20107;-64
2023/04/07 12:17:25;;;;;;;0.10;0.10;;;12.40;99.90;;;;;;5005347;28;20077;-66
2023/04/07 12:19:51;;;;;;;0.10;0.10;;;12.50;99.90;;;;;;4997461;28;20112;-65
2023/04/07 12:22:16;;;;;;;1.13;1.02;;;12.60;99.90;;;;;;5009896;28;20038;-66
2023/04/07 12:24:42;;;;;;;0.10;0.10;;;12.60;99.90;;;;;;5013398;28;20046;-66
2023/04/07 12:27:08;;;;;;;2.83;1.20;;;12.50;99.90;;;;;;5009112;28;20043;-65
2023/04/07 12:29:36;;;;;;;0.28;0.28;;;12.40;99.90;;;;;;5006081;28;20037;-65
2023/04/07 12:32:02;;;;;;;0.10;0.10;;;12.40;99.90;;;;;;5003667;28;20074;-65
2023/04/07 12:34:27;;;;;;;0.10;0.10;;;12.30;99.90;;;;;;5005549;28;20097;-65
2023/04/07 12:36:53;;;;;;;0.38;0.38;;;12.20;99.90;;;;;;5000272;28;20045;-65
2023/04/07 12:39:20;;;;;;;0.10;0.10;;;12.20;99.90;;;;;;5009228;28;20092;-65
2023/04/07 12:41:47;;;;;;;0.10;0.10;;;12.00;99.90;;;;;;5008326;28;20068;-65
2023/04/07 12:44:14;;;;;;;0.22;0.22;;;11.90;99.90;;;;;;5000047;28;20041;-65
2023/04/07 12:46:41;;;;;;;0.40;0.40;;;11.80;99.90;;;;;;4997019;28;20146;-66
2023/04/07 12:49:07;;;;;;;0.82;0.82;;;11.70;99.90;;;;;;5005813;28;20074;-65
2023/04/07 12:51:33;;;;;;;0.10;0.10;;;11.70;99.90;;;;;;5006792;28;20548;-65
2023/04/07 12:54:02;;;;;;;0.25;0.25;;;11.70;99.90;;;;;;5003116;28;20042;-66
2023/04/07 12:56:28;;;;;;;0.35;0.35;;;11.70;99.90;;;;;;5006135;28;20050;-64